createdAt,value
2019-02-18T00:00:54.649Z,94.25
2019-02-18T00:07:20.458Z,94.27
2019-02-18T00:17:38.583Z,94.51
2019-02-18T00:24:22.585Z,94.37
2019-02-18T00:30:50.423Z,94.72
2019-02-18T00:36:38.869Z,94.60
2019-02-18T00:43:15.550Z,94.86
2019-02-18T00:49:41.478Z,94.92
2019-02-18T00:56:08.450Z,95.15
2019-02-18T01:02:34.270Z,95.10
2019-02-18T01:09:13.218Z,95.05
2019-02-18T01:19:12.950Z,95.04
2019-02-18T01:25:39.621Z,94.94
2019-02-18T01:32:07.518Z,95.07
2019-02-18T01:38:48.801Z,95.16
2019-02-18T01:45:14.370Z,95.03
2019-02-18T01:51:40.219Z,95.40
2019-02-18T01:58:06.895Z,95.58
2019-02-18T02:04:46.224Z,95.57
2019-02-18T02:11:14.067Z,95.39
2019-02-18T02:21:15.009Z,95.66
2019-02-18T02:27:42.857Z,95.38
2019-02-18T02:34:25.595Z,95.23
2019-02-18T02:40:51.443Z,95.44
2019-02-18T02:47:19.342Z,95.22
2019-02-18T02:53:59.115Z,95.22
2019-02-18T03:00:25.289Z,95.22
2019-02-18T03:06:52.860Z,95.29
2019-02-18T03:13:20.773Z,95.03
2019-02-18T03:26:00.486Z,95.24
2019-02-18T03:32:28.323Z,95.12
2019-02-18T03:38:55.970Z,95.34
2019-02-18T03:45:32.879Z,95.11
2019-02-18T03:51:59.553Z,95.39
2019-02-18T03:58:27.762Z,95.63
2019-02-18T04:05:10.753Z,95.53
2019-02-18T04:11:36.573Z,95.51
2019-02-18T04:18:02.199Z,95.39
2019-02-18T04:28:16.486Z,95.25
2019-02-18T04:34:42.303Z,95.05
2019-02-18T04:41:25.920Z,95.01
2019-02-18T04:47:50.956Z,95.23
2019-02-18T04:54:17.929Z,95.05
2019-02-18T05:00:58.902Z,95.07
2019-02-18T05:07:34.819Z,95.12
2019-02-18T05:14:01.655Z,94.98
2019-02-18T05:20:41.160Z,94.65
2019-02-18T05:30:46.599Z,94.57
2019-02-18T05:37:06.266Z,94.63
2019-02-18T05:43:34.979Z,94.56
2019-02-18T05:50:25.275Z,94.63
2019-02-18T05:56:58.166Z,94.60
2019-02-18T06:03:30.097Z,95.10
2019-02-18T06:10:04.953Z,95.04
2019-02-18T06:16:43.911Z,95.24
2019-02-18T06:23:12.346Z,95.11
2019-02-18T06:33:28.471Z,95.39
2019-02-18T06:39:17.302Z,95.16
2019-02-18T06:46:14.429Z,95.05
2019-02-18T06:52:39.243Z,95.08
2019-02-18T06:59:17.941Z,95.50
2019-02-18T07:06:13.303Z,95.25
2019-02-18T07:12:57.147Z,95.55
2019-02-18T07:19:26.154Z,95.71
2019-02-18T07:25:51.976Z,96.02
2019-02-18T07:36:09.867Z,96.36
2019-02-18T07:42:58.599Z,96.36
2019-02-18T07:49:24.447Z,96.57
2019-02-18T07:56:04.632Z,96.96
2019-02-18T08:02:33.352Z,97.38
2019-02-18T08:09:01.250Z,97.99
2019-02-18T08:15:29.464Z,98.30
2019-02-18T08:22:03.403Z,98.57
2019-02-18T08:28:41.306Z,98.84
2019-02-18T08:37:55.796Z,99.56
2019-02-18T08:44:21.382Z,99.89
2019-02-18T08:50:50.095Z,100.00
2019-02-18T08:57:15.942Z,100.00
2019-02-18T09:03:55.236Z,100.00
2019-02-18T09:10:32.750Z,100.00
2019-02-18T09:16:50.930Z,100.00
2019-02-18T09:23:42.776Z,100.00
2019-02-18T09:30:08.611Z,100.00
2019-02-18T09:39:45.536Z,100.00
2019-02-18T09:50:03.439Z,100.00
2019-02-18T09:56:32.163Z,100.00
2019-02-18T10:03:02.365Z,100.00
2019-02-18T10:09:39.296Z,100.00
2019-02-18T10:16:05.119Z,100.00
2019-02-18T10:22:36.997Z,100.00
2019-02-18T10:29:16.637Z,100.00
2019-02-18T10:35:18.315Z,100.00
2019-02-18T10:41:47.032Z,100.00
2019-02-18T10:52:07.179Z,100.00
2019-02-18T10:58:33.347Z,100.00
2019-02-18T11:05:10.275Z,100.00
2019-02-18T11:11:39.891Z,98.38
2019-02-18T11:18:05.731Z,84.70
2019-02-18T11:24:48.948Z,83.82
2019-02-18T11:31:14.632Z,76.58
2019-02-18T11:37:43.615Z,71.93
2019-02-18T11:44:26.406Z,74.44
2019-02-18T11:54:16.239Z,69.51
2019-02-18T12:00:42.908Z,68.28
2019-02-18T12:07:09.093Z,70.25
2019-02-18T12:13:34.916Z,71.48
2019-02-18T12:20:13.923Z,69.11
2019-02-18T12:26:39.681Z,66.86
2019-02-18T12:33:03.496Z,66.70
2019-02-18T12:39:46.270Z,67.12
2019-02-18T12:56:28.168Z,64.13
2019-02-18T13:02:54.019Z,60.95
2019-02-18T13:09:22.061Z,60.68
2019-02-18T13:16:03.030Z,60.75
2019-02-18T13:21:53.504Z,55.52
2019-02-18T13:28:19.322Z,55.45
2019-02-18T13:34:55.893Z,56.03
2019-02-18T13:41:24.097Z,56.17
2019-02-18T13:47:49.912Z,57.51
2019-02-18T13:57:54.905Z,57.17
2019-02-18T14:04:26.792Z,56.90
2019-02-18T14:11:04.723Z,57.79
2019-02-18T14:17:35.635Z,60.44
2019-02-18T14:24:00.148Z,58.04
2019-02-18T14:30:37.337Z,57.66
2019-02-18T14:37:02.910Z,55.43
2019-02-18T14:43:28.759Z,54.77
2019-02-18T14:49:57.474Z,55.35
2019-02-18T14:59:25.444Z,51.74
2019-02-18T15:06:02.373Z,52.12
2019-02-18T15:12:33.055Z,53.65
2019-02-18T15:18:56.667Z,54.00
2019-02-18T15:25:35.992Z,52.69
2019-02-18T15:32:00.662Z,55.39
2019-02-18T15:38:29.657Z,55.52
2019-02-18T15:44:55.475Z,55.45
2019-02-18T15:51:34.177Z,57.77
2019-02-18T16:01:35.372Z,60.24
2019-02-18T16:08:01.194Z,60.68
2019-02-18T16:14:26.775Z,63.24
2019-02-18T16:21:03.947Z,67.68
2019-02-18T16:27:40.591Z,70.07
2019-02-18T16:34:06.446Z,70.38
2019-02-18T16:40:47.459Z,71.53
2019-02-18T16:44:22.793Z,72.02
2019-02-18T16:50:49.628Z,73.30
2019-02-18T16:57:14.191Z,74.30
2019-02-18T17:03:44.145Z,74.49
2019-02-18T17:10:10.810Z,75.55
2019-02-18T17:16:48.052Z,75.86
2019-02-18T17:23:15.895Z,76.58
2019-02-18T17:29:41.462Z,77.70
2019-02-18T17:36:20.467Z,78.28
2019-02-18T17:42:48.504Z,79.08
2019-02-18T17:49:14.987Z,79.46
2019-02-18T17:55:41.156Z,81.05
2019-02-18T18:05:44.656Z,80.83
2019-02-18T18:12:24.788Z,81.89
2019-02-18T18:18:50.924Z,82.62
2019-02-18T18:25:16.486Z,82.81
2019-02-18T18:31:55.442Z,83.55
2019-02-18T18:38:26.213Z,83.53
2019-02-18T18:44:52.373Z,84.15
2019-02-18T18:51:28.975Z,84.55
2019-02-18T18:57:55.129Z,84.84
2019-02-18T19:08:12.924Z,85.48
2019-02-18T19:14:38.768Z,85.64
2019-02-18T19:21:04.884Z,86.18
2019-02-18T19:27:45.617Z,86.11
2019-02-18T19:34:11.675Z,85.94
2019-02-18T19:40:38.503Z,86.20
2019-02-18T19:47:17.460Z,87.01
2019-02-18T19:53:07.722Z,87.35
2019-02-18T19:59:31.527Z,87.14
2019-02-18T20:09:33.240Z,87.67
2019-02-18T20:15:58.264Z,87.85
2019-02-18T20:22:39.463Z,87.73
2019-02-18T20:29:08.314Z,88.00
2019-02-18T20:35:38.178Z,88.84
2019-02-18T20:42:22.172Z,89.15
2019-02-18T20:48:49.702Z,89.21
2019-02-18T20:55:19.650Z,89.06
2019-02-18T21:01:58.608Z,89.50
2019-02-18T21:08:12.533Z,89.52
2019-02-18T21:14:38.359Z,90.03
2019-02-18T21:21:04.173Z,90.26
2019-02-18T21:27:43.123Z,89.90
2019-02-18T21:34:08.945Z,90.44
2019-02-18T21:40:34.523Z,90.80
2019-02-18T21:47:14.308Z,90.30
2019-02-18T21:53:39.338Z,90.85
2019-02-18T22:00:10.106Z,91.11
2019-02-18T22:06:36.256Z,91.48
2019-02-18T22:13:00.023Z,91.83
2019-02-18T22:19:25.607Z,91.98
2019-02-18T22:25:56.365Z,91.81
2019-02-18T22:32:35.328Z,92.51
2019-02-18T22:38:37.003Z,92.25
2019-02-18T22:45:02.860Z,92.53
2019-02-18T22:51:26.656Z,92.53
2019-02-18T22:58:03.792Z,92.83
2019-02-18T23:04:27.365Z,92.89
2019-02-18T23:14:28.543Z,92.92
2019-02-18T23:20:56.380Z,93.56
2019-02-18T23:27:22.203Z,93.80
2019-02-18T23:33:59.132Z,93.80
2019-02-18T23:40:25.959Z,94.37
2019-02-18T23:46:53.481Z,94.37
2019-02-18T23:53:34.774Z,94.45
